Intl Falls, Minnesota
Current Conditions -  °F | °C
As of 2:10 PM on Friday 19 Dec 2014 (Local Time) from KINL Reporting Station
Overcast Overcast  
Wind Chill: 16°   Ceiling: 1300
Heat Index: 24°   Visibility: 9mi
Dew Point: 19°   Wind: 7mph
Humidity: 81%   Direction: 160°SSE
Pressure: 30.11"   Gusts: NA
Location:  48.5229°N, 93.3185°W
Report Text: KINL 192010Z AUTO 16006KT 9SM BKN013 BKN026 OVC044 M04/M07 A3011 RMK AO2 SNE01 P0000 T10441072
Loading
Personal Weather Stations






























Interactive Weather Map New forecast layout! Learn more

10-Day Weather Forecast

Advertisements
Track Severe Weather on mobile